Roll, Arizona
Current Conditions -  °F | °C
As of 8:57 PM on Sunday 23 Nov 2014 (Local Time) from KNYL Reporting Station
Few Clouds Few Clouds  
Wind Chill: 62°   Ceiling: Unl
Heat Index: 62°   Visibility: 10mi
Dew Point:   Wind: 5mph
Humidity: 11%   Direction: 60°ENE
Pressure: 30.12"   Gusts: NA
Location:  32.75°N, 113.99°W
Report Text: KNYL 240357Z 06004KT 10SM FEW250 17/M14 A3012 RMK AO2 SLP199 T01671144 $
Loading
Personal Weather Stations






























Interactive Weather Map New forecast layout! Learn more

10-Day Weather Forecast

Advertisements
Track Severe Weather on mobile